Bei Facebook empfehlenBei Twitter postenGoogle plusPinterest

Das Wetter im Erzgebirge am 27.04.2016

Wetter und Klima am 27.04.2016 Holzhau im Erzgebirge (630m ü.NN)
Letzte gemessene Temperatur und Uhrzeit der Messung23:45:00 Uhr0.50 °C
Temperatur (Maximum / Höchstwert) und Uhrzeit der Messung15:00:00 Uhr6.10 °C
Temperatur (Minimum / Tiefstwert) und Uhrzeit der Messung02:45:00-1.70 °C
Errechneter Absolutwert der Temperaturschwankungen zwischen Tmin und Tmax des Tages7.80 K
Errechnete Tagesmitteltemperatur2.23854 °C
Gesamt - Niederschlag des Tages (in flüssiger Form)0.00 Liter / m²
Luftdruck (Maximum / Höchstwert) und Zeitpunkt der Messung23:45:00 Uhr1006.00 hPa
Luftdruck (Minimum / Tiefstwert) und Zeitpunkt der Messung00:30:00 Uhr997.70 hPa
Errechneter Absolutwert der Luftdruckschwankungen des Tages8.30 hPa
Höchste gemessene Windgeschwindigkeit und Uhrzeit der Messung23:45:00 Uhr0.00 km/h
Errechnete Windhäufigkeit in Relation zu den Messwerten des Tages0.00000 %
Niedrigste Windkühle (Windchill) und Zeitpunkt der Messung02:45:00 Uhr-1.70 °C
Taupunkt (Maximum / Höchstwert) und Uhrzeit der Messung13:30:00 Uhr-0.60 °C
Taupunkt (Minimum / Tiefstwert) und Uhrzeit der Messung02:45:00-4.90 °C
Anzahl der automatisch eingelesenen Messwerte 96

Detaillierte Wetter- und Klima- Messwerte für den 27.04.2016 in Holzhau im Erzgebirge (630m ü.NN)
ZeitTemperaturLuftdruckRel. LuftfeuchteWindWindrichtungWindchillTaupunktNiederschlag l/m²
23:45:000.50 °C1006.00 hPa80.00 %-2.50 °C 
23:30:000.90 °C1005.90 hPa79.00 %-2.30 °C 
23:15:000.90 °C1005.80 hPa79.00 %-2.30 °C 
23:00:000.90 °C1005.80 hPa79.00 %-2.30 °C 
22:45:001.30 °C1005.70 hPa78.00 %-2.10 °C 
22:30:001.40 °C1005.80 hPa78.00 %-2.00 °C 
22:15:001.40 °C1005.70 hPa77.00 %-2.20 °C 
22:00:001.40 °C1005.60 hPa77.00 %-2.20 °C 
21:45:001.60 °C1005.50 hPa76.00 %-2.20 °C 
21:30:001.70 °C1005.40 hPa76.00 %-2.10 °C 
21:15:001.50 °C1005.50 hPa76.00 %-2.30 °C 
21:00:001.30 °C1005.40 hPa76.00 %-2.50 °C 
20:45:000.90 °C1005.40 hPa75.00 %-3.00 °C 
20:30:000.60 °C1005.50 hPa73.00 %-3.70 °C 
20:15:000.70 °C1005.20 hPa72.00 %-3.80 °C 
20:00:001.60 °C1005.20 hPa71.00 %-3.10 °C 
19:45:002.30 °C1005.20 hPa70.00 %-2.60 °C 
19:30:002.80 °C1005.00 hPa69.00 %-2.30 °C 
19:15:003.10 °C1004.90 hPa68.00 %-2.20 °C 
19:00:003.20 °C1005.00 hPa67.00 %-2.30 °C 
18:45:003.40 °C1005.00 hPa66.00 %-2.30 °C 
18:30:003.60 °C1004.80 hPa66.00 %-2.10 °C 
18:15:003.90 °C1004.50 hPa65.00 %-2.10 °C 
18:00:004.10 °C1004.20 hPa64.00 %-2.10 °C 
17:45:004.30 °C1004.00 hPa64.00 %-1.90 °C 
17:30:004.70 °C1004.00 hPa63.00 %-1.70 °C 
17:15:004.40 °C1004.00 hPa64.00 %-1.80 °C 
17:00:004.40 °C1003.90 hPa62.00 %-2.20 °C 
16:45:004.50 °C1003.80 hPa61.00 %-2.40 °C 
16:30:004.60 °C1003.80 hPa61.00 %-2.30 °C 
16:15:005.00 °C1003.50 hPa60.00 %-2.10 °C 
16:00:005.30 °C1003.30 hPa59.00 %-2.00 °C 
15:45:005.40 °C1003.30 hPa59.00 %-2.00 °C 
15:30:005.70 °C1003.20 hPa59.00 %-1.70 °C 
15:15:005.90 °C1003.10 hPa59.00 %-1.50 °C 
15:00:006.10 °C1002.90 hPa60.00 %-1.10 °C 
14:45:005.80 °C1002.80 hPa59.00 %-1.60 °C 
14:30:005.90 °C1002.70 hPa59.00 %-1.50 °C 
14:15:005.90 °C1002.90 hPa61.00 %-1.00 °C 
14:00:005.60 °C1002.80 hPa61.00 %-1.30 °C 
13:45:005.60 °C1002.60 hPa63.00 %-0.90 °C 
13:30:005.00 °C1002.70 hPa67.00 %-0.60 °C 
13:15:004.10 °C1002.90 hPa68.00 %-1.30 °C 
13:00:003.30 °C1002.70 hPa67.00 %-2.20 °C 
12:45:003.50 °C1002.60 hPa66.00 %-2.20 °C 
12:30:003.70 °C1002.50 hPa66.00 %-2.00 °C 
12:15:003.40 °C1002.50 hPa66.00 %-2.30 °C 
12:00:003.20 °C1002.40 hPa65.00 %-2.70 °C 
11:45:003.30 °C1002.30 hPa65.00 %-2.60 °C 
11:30:003.80 °C1002.20 hPa64.00 %-2.40 °C 
11:15:004.20 °C1001.70 hPa64.00 %-2.00 °C 
11:00:004.60 °C1001.60 hPa65.00 %-1.40 °C 
10:45:004.40 °C1001.60 hPa65.00 %-1.60 °C 
10:30:004.40 °C1001.60 hPa65.00 %-1.60 °C 
10:15:004.10 °C1001.40 hPa66.00 %-1.70 °C 
10:00:004.30 °C1001.40 hPa65.00 %-1.70 °C 
09:45:004.90 °C1001.10 hPa66.00 %-0.90 °C 
09:30:004.40 °C1000.90 hPa68.00 %-1.00 °C 
09:15:004.10 °C1001.00 hPa68.00 %-1.30 °C 
09:00:003.80 °C1001.00 hPa69.00 %-1.40 °C 
08:45:003.90 °C1000.90 hPa71.00 %-0.90 °C 
08:30:002.60 °C1000.70 hPa73.00 %-1.70 °C 
08:15:001.90 °C1000.70 hPa74.00 %-2.20 °C 
08:00:001.60 °C1000.50 hPa73.00 %-2.70 °C 
07:45:001.60 °C1000.30 hPa75.00 %-2.30 °C 
07:30:001.50 °C1000.50 hPa75.00 %-2.40 °C 
07:15:001.60 °C1000.60 hPa76.00 %-2.20 °C 
07:00:001.50 °C1000.50 hPa77.00 %-2.10 °C 
06:45:001.30 °C1000.30 hPa80.00 %-1.80 °C 
06:30:000.80 °C1000.00 hPa81.00 %-2.10 °C 
06:15:000.20 °C1000.00 hPa81.00 %-2.70 °C 
06:00:000.00 °C999.80 hPa82.00 %-3.00 °C 
05:45:00-0.20 °C999.50 hPa82.00 %-3.20 °C 
05:30:00-0.40 °C999.50 hPa82.00 %-3.40 °C 
05:15:00-0.50 °C999.70 hPa82.00 %-3.50 °C 
05:00:00-0.50 °C999.50 hPa82.00 %-3.50 °C 
04:45:00-0.70 °C999.30 hPa82.00 %-3.70 °C 
04:30:00-0.50 °C999.20 hPa82.00 %-3.50 °C 
04:15:00-0.30 °C999.20 hPa83.00 %-3.10 °C 
04:00:00-0.40 °C999.20 hPa83.00 %-3.20 °C 
03:45:00-0.50 °C999.00 hPa83.00 %-3.30 °C 
03:30:00-0.60 °C999.00 hPa83.00 %-3.40 °C 
03:15:00-0.90 °C999.00 hPa83.00 %-3.70 °C 
03:00:00-1.10 °C998.60 hPa82.00 %-4.10 °C 
02:45:00-1.70 °C998.60 hPa81.00 %-4.90 °C 
02:30:00-1.50 °C998.40 hPa81.00 %-4.70 °C 
02:15:00-1.10 °C998.10 hPa81.00 %-4.30 °C 
02:00:00-0.70 °C998.20 hPa80.00 %-4.10 °C 
01:45:00-0.20 °C998.00 hPa81.00 %-3.40 °C 
01:30:00-0.20 °C998.20 hPa81.00 %-3.40 °C 
01:15:00-0.40 °C998.20 hPa81.00 %-3.60 °C 
01:00:00-0.50 °C998.10 hPa81.00 %-3.70 °C 
00:45:00-0.60 °C998.00 hPa80.00 %-4.00 °C 
00:30:00-0.20 °C997.70 hPa80.00 %-3.60 °C 
00:15:00-0.10 °C997.70 hPa81.00 %-3.30 °C 
00:00:00-0.40 °C997.80 hPa81.00 %-3.60 °C 

Permanenter Link zu dieser Seite: Wetter im Erzgebirge am 27.04.2016
Performance-Info: Die Erstellung der Seite / Statistik(en) / Tabelle(n) erforderte 5 Datenbankserver-Abfrage(n) und dauerte 101 Millisekunden. (Dieser Messwert ist von der Gesamt-Auslastung des Servers abhängig.)
Erzgebirge - Wetter | Erzgebirge - Wetter (Mobilgeräte) | Komplette Klimadatenbank